Mount Carmel, Pennsylvania
Current Conditions -  °F | °C
As of 5:53 PM on Monday 24 Nov 2014 (Local Time) from KSEG Reporting Station
Broken Clouds Broken Clouds  
Wind Chill: 65°   Ceiling: 9000
Heat Index: 65°   Visibility: 10mi
Dew Point: 51°   Wind: 9mph
Humidity: 61%   Direction: 190°S
Pressure: 29.58"   Gusts: 17mph
Location:  40.8°N, 76.41°W
Report Text: KSEG 242253Z AUTO 19008G15KT 10SM BKN090 18/11 A2958 RMK AO2 SLP014 T01830106
Loading
Personal Weather Stations






























Interactive Weather Map New forecast layout! Learn more

10-Day Weather Forecast

Advertisements
Track Severe Weather on mobile